Time;durP1;ratioP1;P1;durP2;ratioP2;P2;SDS_P1;SDS_P2;PMS_P1;PMS_P2;Temp;Humidity;BMP_temperature;BMP_pressure;BME280_temperature;BME280_humidity;BME280_pressure;Samples;Min_cycle;Max_cycle;Signal;HPM_P1;HPM_P2
2022/10/29 00:01:12;;;;;;;16.23;6.00;;;;;;;;;;5072859;28;20874;-69
2022/10/29 00:03:38;;;;;;;15.33;5.93;;;;;;;;;;5073748;28;20461;-69
2022/10/29 00:06:10;;;;;;;10.97;4.40;;;;;;;;;;5074268;28;20884;-69
2022/10/29 00:08:37;;;;;;;11.33;5.13;;;;;;;;;;5074931;28;20460;-69
2022/10/29 00:11:05;;;;;;;12.23;4.70;;;;;;;;;;5075342;28;20461;-69
2022/10/29 00:13:33;;;;;;;15.63;5.70;;;;;;;;;;5074056;28;20880;-69
2022/10/29 00:16:03;;;;;;;10.07;5.03;;;;;;;;;;5073125;28;20453;-69
2022/10/29 00:18:31;;;;;;;13.07;5.27;;;;;;;;;;5072255;28;20571;-69
2022/10/29 00:21:01;;;;;;;20.67;5.97;;;;;;;;;;5073043;28;21002;-69
2022/10/29 00:23:28;;;;;;;11.40;4.80;;;;;;;;;;5073602;28;20849;-69
2022/10/29 00:26:02;;;;;;;7.23;5.47;;;;;;;;;;5072197;28;20457;-68
2022/10/29 00:28:33;;;;;;;13.07;5.40;;;;;;;;;;5072400;28;20455;-69
2022/10/29 00:31:03;;;;;;;12.37;5.73;;;;;;;;;;5073757;28;20463;-69
2022/10/29 00:33:30;;;;;;;13.20;5.43;;;;;;;;;;5063731;28;20446;-69
2022/10/29 00:35:57;;;;;;;13.87;5.80;;;;;;;;;;5054324;28;20562;-68
2022/10/29 00:38:25;;;;;;;15.47;9.07;;;;;;;;;;5054525;28;20499;-68
2022/10/29 00:40:52;;;;;;;12.80;5.40;;;;;;;;;;5055014;28;20457;-69
2022/10/29 00:43:20;;;;;;;14.23;6.10;;;;;;;;;;5056721;28;20527;-69
2022/10/29 00:45:48;;;;;;;13.17;6.10;;;;;;;;;;5057672;28;20461;-68
2022/10/29 00:48:16;;;;;;;18.30;5.47;;;;;;;;;;5057483;28;20460;-69
2022/10/29 00:50:43;;;;;;;16.97;6.60;;;;;;;;;;5056116;28;20461;-69
2022/10/29 00:53:11;;;;;;;12.57;5.83;;;;;;;;;;5057651;28;20514;-68
2022/10/29 00:55:37;;;;;;;15.63;7.10;;;;;;;;;;5055904;28;20481;-69
2022/10/29 00:58:04;;;;;;;14.00;6.67;;;;;;;;;;5056940;28;20499;-69
2022/10/29 01:00:32;;;;;;;10.50;5.37;;;;;;;;;;5057006;28;20468;-69
2022/10/29 01:02:59;;;;;;;13.07;6.40;;;;;;;;;;5057265;28;20445;-69
2022/10/29 01:05:28;;;;;;;10.93;6.77;;;;;;;;;;5057507;28;20495;-69
2022/10/29 01:07:55;;;;;;;11.10;5.03;;;;;;;;;;5056328;28;20523;-69
2022/10/29 01:10:32;;;;;;;12.83;5.63;;;;;;;;;;5057482;28;20505;-69
2022/10/29 01:13:16;;;;;;;13.87;5.90;;;;;;;;;;5057263;28;20449;-69
2022/10/29 01:15:46;;;;;;;13.37;5.90;;;;;;;;;;5056137;28;20457;-69
2022/10/29 01:18:17;;;;;;;15.90;7.20;;;;;;;;;;5056801;28;20495;-69
2022/10/29 01:21:08;;;;;;;17.40;5.70;;;;;;;;;;5056285;28;20457;-69
2022/10/29 01:23:55;;;;;;;12.70;6.10;;;;;;;;;;5057622;28;20724;-68
2022/10/29 01:26:34;;;;;;;14.23;6.27;;;;;;;;;;5057028;28;20457;-68
2022/10/29 01:29:10;;;;;;;14.07;5.73;;;;;;;;;;5055666;28;21194;-69
2022/10/29 01:31:41;;;;;;;15.40;6.10;;;;;;;;;;5056369;28;20551;-68
2022/10/29 01:34:14;;;;;;;16.13;7.23;;;;;;;;;;5056804;28;20481;-68
2022/10/29 01:36:44;;;;;;;13.43;6.57;;;;;;;;;;5056293;28;20916;-69
2022/10/29 01:39:18;;;;;;;25.17;8.03;;;;;;;;;;5057642;28;20519;-69
2022/10/29 01:41:51;;;;;;;16.07;6.60;;;;;;;;;;5055702;28;20872;-69
2022/10/29 01:44:23;;;;;;;17.03;6.43;;;;;;;;;;5056814;28;20452;-69
2022/10/29 01:46:54;;;;;;;16.73;6.73;;;;;;;;;;5056770;28;20855;-69
2022/10/29 01:49:23;;;;;;;13.97;5.37;;;;;;;;;;5056565;28;20630;-69
2022/10/29 01:51:51;;;;;;;17.23;6.37;;;;;;;;;;5056587;28;20453;-69
2022/10/29 01:54:18;;;;;;;11.00;6.67;;;;;;;;;;5056105;28;21052;-69
2022/10/29 01:56:53;;;;;;;14.40;6.70;;;;;;;;;;5056706;28;20785;-69
2022/10/29 01:59:20;;;;;;;13.67;6.43;;;;;;;;;;5055234;28;20759;-69
2022/10/29 02:01:51;;;;;;;14.30;6.33;;;;;;;;;;5056482;28;20453;-69
2022/10/29 02:04:25;;;;;;;11.63;7.57;;;;;;;;;;5055002;28;20473;-69
2022/10/29 02:06:56;;;;;;;19.40;6.90;;;;;;;;;;5055833;28;20595;-69
2022/10/29 02:09:27;;;;;;;11.13;6.47;;;;;;;;;;5056548;28;20515;-68
2022/10/29 02:11:59;;;;;;;8.37;6.40;;;;;;;;;;5055487;28;20460;-68
2022/10/29 02:14:27;;;;;;;13.60;6.47;;;;;;;;;;5056200;28;20478;-69
2022/10/29 02:16:54;;;;;;;17.57;7.37;;;;;;;;;;5056068;28;20497;-69
2022/10/29 02:19:22;;;;;;;16.23;7.20;;;;;;;;;;5055010;28;20456;-69
2022/10/29 02:21:50;;;;;;;20.07;7.20;;;;;;;;;;5056007;28;20554;-68
2022/10/29 02:24:17;;;;;;;14.43;6.90;;;;;;;;;;5055742;28;20453;-68
2022/10/29 02:26:44;;;;;;;10.70;7.20;;;;;;;;;;5055161;28;20437;-69
2022/10/29 02:29:11;;;;;;;14.97;6.70;;;;;;;;;;5055993;28;20459;-68
2022/10/29 02:31:38;;;;;;;14.33;7.90;;;;;;;;;;5056657;28;20450;-68
2022/10/29 02:34:05;;;;;;;9.57;6.73;;;;;;;;;;5057124;28;20496;-69
2022/10/29 02:36:32;;;;;;;16.30;7.17;;;;;;;;;;5074669;28;20502;-69
2022/10/29 02:38:59;;;;;;;14.87;7.10;;;;;;;;;;5076378;28;20475;-69
2022/10/29 02:41:26;;;;;;;11.57;7.93;;;;;;;;;;5076689;28;20481;-69
2022/10/29 02:43:53;;;;;;;10.70;6.53;;;;;;;;;;5076788;28;20570;-69
2022/10/29 02:46:21;;;;;;;18.90;7.80;;;;;;;;;;5076337;28;20737;-69
2022/10/29 02:48:48;;;;;;;13.20;7.63;;;;;;;;;;5076454;28;20460;-69
2022/10/29 02:51:15;;;;;;;18.23;7.47;;;;;;;;;;5074728;28;20737;-69
2022/10/29 02:53:43;;;;;;;10.97;6.67;;;;;;;;;;5076810;28;20478;-69
2022/10/29 02:56:10;;;;;;;12.23;6.33;;;;;;;;;;5076330;28;20459;-69
2022/10/29 02:58:37;;;;;;;12.77;7.20;;;;;;;;;;5076235;28;20484;-68
2022/10/29 03:01:05;;;;;;;16.73;7.13;;;;;;;;;;5075795;28;20488;-68
2022/10/29 03:03:33;;;;;;;13.77;6.40;;;;;;;;;;5076523;28;21047;-70
2022/10/29 03:06:00;;;;;;;15.83;6.87;;;;;;;;;;5075969;28;20864;-70
2022/10/29 03:08:27;;;;;;;23.63;6.93;;;;;;;;;;5076936;28;20464;-70
2022/10/29 03:11:02;;;;;;;15.10;6.87;;;;;;;;;;5071214;28;20446;-71
2022/10/29 03:13:29;;;;;;;22.20;7.37;;;;;;;;;;5062457;28;20456;-70
2022/10/29 03:15:56;;;;;;;13.40;7.00;;;;;;;;;;5076613;28;20471;-69
2022/10/29 03:18:24;;;;;;;12.07;6.80;;;;;;;;;;5067583;28;20489;-70
2022/10/29 03:20:52;;;;;;;13.23;6.23;;;;;;;;;;5056292;28;20511;-70
2022/10/29 03:23:18;;;;;;;17.30;6.40;;;;;;;;;;5069959;28;20464;-70
2022/10/29 03:25:51;;;;;;;14.23;7.60;;;;;;;;;;5075879;28;20537;-70
2022/10/29 03:28:19;;;;;;;21.43;9.30;;;;;;;;;;5076711;28;20791;-70
2022/10/29 03:30:46;;;;;;;13.63;7.33;;;;;;;;;;5076723;28;20460;-70
2022/10/29 03:33:15;;;;;;;19.43;8.40;;;;;;;;;;5076508;28;20452;-70
2022/10/29 03:35:42;;;;;;;11.90;6.37;;;;;;;;;;5076309;28;20872;-69
2022/10/29 03:38:09;;;;;;;12.60;7.97;;;;;;;;;;5076680;28;20488;-70
2022/10/29 03:40:36;;;;;;;13.00;7.30;;;;;;;;;;5076548;28;21015;-70
2022/10/29 03:43:03;;;;;;;14.93;7.53;;;;;;;;;;5076973;28;20463;-70
2022/10/29 03:45:31;;;;;;;19.50;7.73;;;;;;;;;;5075142;28;20464;-69
2022/10/29 03:47:58;;;;;;;15.43;7.53;;;;;;;;;;5076657;28;20458;-70
2022/10/29 03:50:25;;;;;;;14.80;7.40;;;;;;;;;;5074888;28;20468;-70
2022/10/29 03:52:52;;;;;;;14.50;7.77;;;;;;;;;;5075753;28;20503;-70
2022/10/29 03:55:19;;;;;;;23.03;6.90;;;;;;;;;;5069597;28;20463;-70
2022/10/29 03:57:46;;;;;;;17.73;6.40;;;;;;;;;;5056367;28;20789;-70
2022/10/29 04:00:13;;;;;;;23.50;8.40;;;;;;;;;;5054938;28;20460;-70
2022/10/29 04:02:44;;;;;;;13.30;6.70;;;;;;;;;;5055173;28;20562;-70
2022/10/29 04:05:18;;;;;;;10.93;5.60;;;;;;;;;;5054751;28;20466;-70
2022/10/29 04:07:45;;;;;;;19.27;8.53;;;;;;;;;;5065831;28;20464;-70
2022/10/29 04:10:12;;;;;;;16.53;6.77;;;;;;;;;;5075645;28;20452;-70
2022/10/29 04:12:38;;;;;;;16.13;8.10;;;;;;;;;;5074858;28;20581;-70
2022/10/29 04:15:07;;;;;;;14.23;7.47;;;;;;;;;;5074434;28;20453;-70
2022/10/29 04:17:36;;;;;;;18.50;8.00;;;;;;;;;;5072759;28;20492;-70
2022/10/29 04:20:03;;;;;;;12.60;6.73;;;;;;;;;;5075393;28;20482;-70
2022/10/29 04:22:33;;;;;;;18.40;6.73;;;;;;;;;;5074632;28;20468;-70
2022/10/29 04:25:02;;;;;;;14.63;7.30;;;;;;;;;;5075036;28;20514;-70
2022/10/29 04:27:31;;;;;;;17.77;6.60;;;;;;;;;;5068775;28;20583;-70
2022/10/29 04:29:58;;;;;;;15.47;7.00;;;;;;;;;;5055500;28;20548;-70
2022/10/29 04:32:28;;;;;;;16.90;7.00;;;;;;;;;;5063408;28;20457;-70
2022/10/29 04:34:55;;;;;;;17.10;7.27;;;;;;;;;;5075444;28;20799;-70
2022/10/29 04:37:23;;;;;;;16.90;6.30;;;;;;;;;;5074381;28;20480;-70
2022/10/29 04:39:49;;;;;;;12.07;6.47;;;;;;;;;;5074271;28;20455;-70
2022/10/29 04:42:16;;;;;;;13.73;6.97;;;;;;;;;;5074894;28;20456;-70
2022/10/29 04:44:44;;;;;;;12.20;6.30;;;;;;;;;;5064935;28;20803;-70
2022/10/29 04:47:11;;;;;;;11.03;6.77;;;;;;;;;;5054550;28;20477;-70
2022/10/29 04:49:38;;;;;;;15.87;8.17;;;;;;;;;;5054491;28;20472;-71
2022/10/29 04:52:05;;;;;;;11.80;5.77;;;;;;;;;;5054612;28;20456;-70
2022/10/29 04:54:33;;;;;;;15.50;6.67;;;;;;;;;;5054804;28;20916;-70
2022/10/29 04:57:00;;;;;;;13.03;6.60;;;;;;;;;;5059079;28;20534;-70
2022/10/29 04:59:27;;;;;;;14.87;7.83;;;;;;;;;;5074330;28;20437;-70
2022/10/29 05:01:54;;;;;;;18.60;6.70;;;;;;;;;;5073527;28;20461;-69
2022/10/29 05:04:26;;;;;;;8.40;6.07;;;;;;;;;;5071044;28;20537;-69
2022/10/29 05:06:53;;;;;;;11.17;6.33;;;;;;;;;;5073834;28;20862;-70
2022/10/29 05:09:21;;;;;;;12.80;6.03;;;;;;;;;;5074889;28;20512;-70
2022/10/29 05:11:48;;;;;;;19.63;7.70;;;;;;;;;;5075460;28;20460;-70
2022/10/29 05:14:15;;;;;;;18.10;8.93;;;;;;;;;;5075293;28;20551;-70
2022/10/29 05:16:42;;;;;;;23.60;9.00;;;;;;;;;;5074964;28;20937;-69
2022/10/29 05:19:09;;;;;;;16.33;8.50;;;;;;;;;;5074880;28;20444;-69
2022/10/29 05:21:36;;;;;;;22.27;8.63;;;;;;;;;;5064216;28;20538;-70
2022/10/29 05:24:03;;;;;;;24.43;7.57;;;;;;;;;;5073597;28;20446;-70
2022/10/29 05:26:32;;;;;;;14.47;7.80;;;;;;;;;;5074218;28;20456;-70
2022/10/29 05:29:00;;;;;;;13.40;8.27;;;;;;;;;;5075808;28;20468;-70
2022/10/29 05:31:27;;;;;;;16.30;6.27;;;;;;;;;;5077882;28;20944;-70
2022/10/29 05:33:53;;;;;;;21.40;9.50;;;;;;;;;;5072211;28;20551;-69
2022/10/29 05:36:20;;;;;;;11.63;8.07;;;;;;;;;;5056932;28;20457;-70
2022/10/29 05:38:47;;;;;;;12.13;8.57;;;;;;;;;;5056802;28;20577;-69
2022/10/29 05:41:17;;;;;;;17.93;6.50;;;;;;;;;;5056129;28;20568;-69
2022/10/29 05:43:49;;;;;;;16.23;7.50;;;;;;;;;;5055901;28;20456;-70
2022/10/29 05:46:19;;;;;;;14.20;6.77;;;;;;;;;;5057045;28;21006;-70
2022/10/29 05:48:46;;;;;;;12.80;6.90;;;;;;;;;;5075784;28;20957;-69
2022/10/29 05:51:17;;;;;;;13.67;6.30;;;;;;;;;;5067008;28;20470;-70
2022/10/29 05:53:44;;;;;;;10.40;6.40;;;;;;;;;;5057221;28;20442;-70
2022/10/29 05:56:11;;;;;;;10.93;6.70;;;;;;;;;;5067100;28;20988;-69
2022/10/29 05:58:38;;;;;;;15.20;7.17;;;;;;;;;;5076292;28;20484;-70
2022/10/29 06:01:08;;;;;;;17.53;7.93;;;;;;;;;;5076208;28;20453;-70
2022/10/29 06:03:37;;;;;;;10.10;6.40;;;;;;;;;;5076467;28;20448;-70
2022/10/29 06:06:05;;;;;;;13.20;7.43;;;;;;;;;;5076806;28;20939;-70
2022/10/29 06:08:32;;;;;;;20.37;6.87;;;;;;;;;;5067390;28;20460;-70
2022/10/29 06:11:02;;;;;;;23.53;7.27;;;;;;;;;;5066598;28;20456;-70
2022/10/29 06:13:35;;;;;;;16.63;7.77;;;;;;;;;;5070743;28;20468;-70
2022/10/29 06:16:06;;;;;;;11.77;6.90;;;;;;;;;;5065065;28;20882;-69
2022/10/29 06:18:32;;;;;;;12.73;7.57;;;;;;;;;;5068756;28;20480;-69
2022/10/29 06:21:00;;;;;;;15.47;7.77;;;;;;;;;;5076964;28;20440;-69
2022/10/29 06:23:28;;;;;;;13.97;7.07;;;;;;;;;;5065121;28;20476;-69
2022/10/29 06:25:59;;;;;;;11.70;6.50;;;;;;;;;;5057401;28;20953;-70
2022/10/29 06:28:27;;;;;;;15.50;6.57;;;;;;;;;;5061701;28;20475;-70
2022/10/29 06:30:54;;;;;;;11.40;7.50;;;;;;;;;;5076346;28;20448;-70
2022/10/29 06:33:21;;;;;;;12.40;7.57;;;;;;;;;;5075498;28;20559;-70
2022/10/29 06:35:48;;;;;;;29.47;19.07;;;;;;;;;;5075908;28;20449;-70
2022/10/29 06:38:17;;;;;;;22.60;7.13;;;;;;;;;;5075213;28;20507;-70
2022/10/29 06:40:52;;;;;;;18.97;7.17;;;;;;;;;;5070918;28;20461;-71
2022/10/29 06:43:19;;;;;;;11.17;7.20;;;;;;;;;;5075278;28;20468;-70
2022/10/29 06:45:46;;;;;;;10.57;7.73;;;;;;;;;;5073521;28;20521;-70
2022/10/29 06:48:18;;;;;;;18.50;10.10;;;;;;;;;;5074765;28;20492;-70
2022/10/29 06:50:45;;;;;;;14.23;7.77;;;;;;;;;;5075530;28;20449;-70
2022/10/29 06:53:15;;;;;;;16.70;9.10;;;;;;;;;;5075645;28;20517;-70
2022/10/29 06:55:43;;;;;;;21.03;11.20;;;;;;;;;;5074312;28;20475;-70
2022/10/29 06:58:13;;;;;;;20.67;11.93;;;;;;;;;;5074768;28;20496;-71
2022/10/29 07:00:44;;;;;;;17.07;9.60;;;;;;;;;;5072461;28;20450;-70
2022/10/29 07:03:12;;;;;;;18.93;11.23;;;;;;;;;;5072593;28;20881;-68
2022/10/29 07:05:39;;;;;;;28.97;15.40;;;;;;;;;;5072931;28;20444;-70
2022/10/29 07:08:06;;;;;;;18.47;11.27;;;;;;;;;;5068100;28;20471;-68
2022/10/29 07:10:34;;;;;;;24.63;12.43;;;;;;;;;;5070126;28;20894;-70
2022/10/29 07:13:02;;;;;;;17.07;9.37;;;;;;;;;;5074035;28;20877;-70
2022/10/29 07:15:30;;;;;;;16.90;7.93;;;;;;;;;;5073330;28;20471;-69
2022/10/29 07:17:57;;;;;;;16.10;7.40;;;;;;;;;;5074177;28;20515;-69
2022/10/29 07:20:24;;;;;;;12.27;6.87;;;;;;;;;;5073191;28;20472;-69
2022/10/29 07:22:51;;;;;;;13.23;7.67;;;;;;;;;;5073240;28;20448;-70
2022/10/29 07:25:19;;;;;;;11.67;6.60;;;;;;;;;;5072666;28;20464;-70
2022/10/29 07:27:46;;;;;;;14.67;6.40;;;;;;;;;;5071442;28;20559;-70
2022/10/29 07:30:14;;;;;;;13.03;7.40;;;;;;;;;;5073058;28;20460;-70
2022/10/29 07:32:43;;;;;;;12.73;6.63;;;;;;;;;;5073400;28;20760;-70
2022/10/29 07:35:10;;;;;;;13.40;6.83;;;;;;;;;;5068613;28;20899;-70
2022/10/29 07:37:37;;;;;;;12.00;7.40;;;;;;;;;;5071733;28;20480;-70
2022/10/29 07:40:07;;;;;;;15.07;6.20;;;;;;;;;;5072961;28;20460;-70
2022/10/29 07:42:40;;;;;;;12.33;6.17;;;;;;;;;;5064997;28;20892;-69
2022/10/29 07:45:07;;;;;;;16.63;8.60;;;;;;;;;;5071320;28;20473;-70
2022/10/29 07:47:35;;;;;;;9.90;6.57;;;;;;;;;;5073237;28;20750;-69
2022/10/29 07:50:06;;;;;;;12.43;6.13;;;;;;;;;;5071694;28;20460;-69
2022/10/29 07:52:33;;;;;;;18.43;10.70;;;;;;;;;;5064455;28;20487;-69
2022/10/29 07:55:08;;;;;;;11.73;6.77;;;;;;;;;;5072054;28;20464;-69
2022/10/29 07:57:38;;;;;;;20.83;7.53;;;;;;;;;;5068354;28;20579;-69
2022/10/29 08:00:07;;;;;;;16.00;7.20;;;;;;;;;;5070481;28;20473;-70
2022/10/29 08:02:34;;;;;;;11.47;6.53;;;;;;;;;;5067055;28;20476;-70
2022/10/29 08:05:01;;;;;;;13.37;6.27;;;;;;;;;;5070093;28;20515;-69
2022/10/29 08:07:28;;;;;;;12.20;6.80;;;;;;;;;;5072802;28;20527;-69
2022/10/29 08:09:55;;;;;;;15.07;6.37;;;;;;;;;;5072810;28;20547;-69
2022/10/29 08:12:23;;;;;;;12.73;6.53;;;;;;;;;;5072667;28;20448;-69
2022/10/29 08:14:50;;;;;;;16.57;11.43;;;;;;;;;;5068155;28;21108;-69
2022/10/29 08:17:17;;;;;;;11.77;8.40;;;;;;;;;;5071397;28;20980;-69
2022/10/29 08:19:45;;;;;;;13.53;8.53;;;;;;;;;;5072267;28;20918;-71
2022/10/29 08:22:12;;;;;;;12.40;6.83;;;;;;;;;;5068919;28;20529;-68
2022/10/29 08:24:39;;;;;;;16.57;8.40;;;;;;;;;;5071415;28;20478;-69
2022/10/29 08:27:08;;;;;;;11.70;7.73;;;;;;;;;;5073905;28;20469;-70
2022/10/29 08:29:35;;;;;;;11.53;7.13;;;;;;;;;;5073292;28;20496;-70
2022/10/29 08:32:04;;;;;;;16.47;7.83;;;;;;;;;;5070309;28;20582;-70
2022/10/29 08:34:31;;;;;;;14.27;8.60;;;;;;;;;;5071859;28;20868;-69
2022/10/29 08:36:59;;;;;;;17.93;8.90;;;;;;;;;;5067696;28;20517;-69
2022/10/29 08:39:27;;;;;;;12.87;8.03;;;;;;;;;;5071077;28;20475;-70
2022/10/29 08:41:59;;;;;;;12.67;8.60;;;;;;;;;;5067674;28;20475;-71
2022/10/29 08:44:48;;;;;;;13.37;8.53;;;;;;;;;;5065281;28;20914;-70
2022/10/29 08:47:19;;;;;;;19.83;8.73;;;;;;;;;;5072038;28;20706;-70
2022/10/29 08:49:47;;;;;;;14.30;8.77;;;;;;;;;;5064547;28;20461;-70
2022/10/29 08:52:19;;;;;;;17.83;9.40;;;;;;;;;;5065918;28;20698;-70
2022/10/29 08:54:52;;;;;;;12.13;7.70;;;;;;;;;;5061993;28;20461;-68
2022/10/29 08:57:23;;;;;;;12.77;7.33;;;;;;;;;;5065048;28;20521;-71
2022/10/29 08:59:59;;;;;;;17.97;8.33;;;;;;;;;;5066716;28;20467;-70
2022/10/29 09:02:26;;;;;;;13.40;7.30;;;;;;;;;;5064288;28;20519;-68
2022/10/29 09:04:53;;;;;;;17.33;8.73;;;;;;;;;;5067926;28;20468;-69
2022/10/29 09:07:28;;;;;;;15.03;8.93;;;;;;;;;;5073983;28;20444;-69
2022/10/29 09:09:58;;;;;;;12.97;9.53;;;;;;;;;;5073099;28;20475;-70
2022/10/29 09:12:36;;;;;;;24.40;12.03;;;;;;;;;;5073966;28;20873;-70
2022/10/29 09:15:29;;;;;;;13.27;7.57;;;;;;;;;;5068052;28;20480;-69
2022/10/29 09:18:08;;;;;;;17.53;8.17;;;;;;;;;;5026235;28;20961;-69
2022/10/29 09:20:46;;;;;;;13.67;7.80;;;;;;;;;;5073093;28;20472;-70
2022/10/29 09:23:26;;;;;;;13.00;7.13;;;;;;;;;;5074400;28;20496;-70
2022/10/29 09:26:01;;;;;;;18.00;8.03;;;;;;;;;;5075390;28;20489;-69
2022/10/29 09:28:33;;;;;;;15.40;7.27;;;;;;;;;;5072641;28;20475;-69
2022/10/29 09:31:04;;;;;;;15.70;8.27;;;;;;;;;;5070332;28;20496;-69
2022/10/29 09:33:32;;;;;;;9.83;7.30;;;;;;;;;;5070896;28;20476;-70
2022/10/29 09:36:01;;;;;;;13.13;9.13;;;;;;;;;;5083884;28;20458;-69
2022/10/29 09:38:34;;;;;;;11.73;7.53;;;;;;;;;;5069363;28;20563;-69
2022/10/29 09:41:06;;;;;;;14.13;8.37;;;;;;;;;;5074459;28;20782;-70
2022/10/29 09:43:38;;;;;;;16.73;8.03;;;;;;;;;;5072064;28;21005;-70
2022/10/29 09:46:09;;;;;;;13.00;6.73;;;;;;;;;;5069593;28;20506;-69
2022/10/29 09:48:39;;;;;;;21.40;8.80;;;;;;;;;;5061071;28;20587;-70
2022/10/29 09:51:11;;;;;;;22.73;11.90;;;;;;;;;;5070934;28;20563;-70
2022/10/29 09:53:41;;;;;;;16.47;7.97;;;;;;;;;;5073453;28;20471;-70
2022/10/29 09:56:09;;;;;;;18.80;7.70;;;;;;;;;;5064251;28;20463;-70
2022/10/29 09:58:45;;;;;;;16.37;6.73;;;;;;;;;;5068371;28;20970;-69
2022/10/29 10:01:15;;;;;;;10.40;7.37;;;;;;;;;;5064755;28;20456;-70
2022/10/29 10:03:47;;;;;;;19.33;9.30;;;;;;;;;;5068445;28;20464;-70
2022/10/29 10:06:22;;;;;;;16.80;8.43;;;;;;;;;;5071817;28;21183;-71
2022/10/29 10:09:03;;;;;;;19.27;9.10;;;;;;;;;;5067019;28;20610;-71
2022/10/29 10:11:35;;;;;;;22.83;8.37;;;;;;;;;;5065892;28;20503;-70
2022/10/29 10:14:05;;;;;;;16.33;9.93;;;;;;;;;;5069880;28;20475;-70
2022/10/29 10:16:33;;;;;;;18.77;9.10;;;;;;;;;;5062141;28;20465;-71
2022/10/29 10:19:01;;;;;;;21.13;9.33;;;;;;;;;;5066167;28;20485;-70
2022/10/29 10:21:38;;;;;;;17.10;8.80;;;;;;;;;;5058549;28;20468;-70
2022/10/29 10:24:29;;;;;;;19.30;9.90;;;;;;;;;;5065798;28;20469;-71
2022/10/29 10:26:56;;;;;;;20.00;9.00;;;;;;;;;;5067640;28;20469;-70
2022/10/29 10:29:23;;;;;;;19.57;9.07;;;;;;;;;;5069662;28;20760;-70
2022/10/29 10:31:51;;;;;;;18.10;9.57;;;;;;;;;;5072393;28;20506;-70
2022/10/29 10:34:37;;;;;;;25.23;11.10;;;;;;;;;;5068800;28;21172;-69
2022/10/29 10:37:18;;;;;;;19.90;10.27;;;;;;;;;;5072393;28;21068;-68
2022/10/29 10:39:52;;;;;;;21.30;9.47;;;;;;;;;;5067803;28;20456;-71
2022/10/29 10:42:20;;;;;;;21.53;10.57;;;;;;;;;;5053574;28;20489;-70
2022/10/29 10:44:53;;;;;;;20.33;10.67;;;;;;;;;;5070315;28;20473;-69
2022/10/29 10:47:26;;;;;;;19.03;9.27;;;;;;;;;;5066813;28;20931;-70
2022/10/29 10:50:04;;;;;;;25.87;12.10;;;;;;;;;;5065068;28;20750;-70
2022/10/29 10:52:34;;;;;;;27.13;10.23;;;;;;;;;;5059718;28;20467;-69
2022/10/29 10:55:10;;;;;;;16.17;9.17;;;;;;;;;;5071958;28;20838;-70
2022/10/29 10:57:41;;;;;;;27.97;11.00;;;;;;;;;;5063496;28;20768;-69
2022/10/29 11:00:14;;;;;;;17.70;8.40;;;;;;;;;;5071299;28;20449;-68
2022/10/29 11:02:46;;;;;;;20.87;8.20;;;;;;;;;;5065993;28;20550;-68
2022/10/29 11:05:24;;;;;;;14.23;7.93;;;;;;;;;;5063960;28;20625;-68
2022/10/29 11:08:03;;;;;;;17.30;8.70;;;;;;;;;;5062534;28;20476;-68
2022/10/29 11:11:05;;;;;;;19.73;8.20;;;;;;;;;;5070091;28;20890;-69
2022/10/29 11:13:59;;;;;;;18.13;7.80;;;;;;;;;;5060634;28;20474;-69
2022/10/29 11:16:30;;;;;;;14.87;8.60;;;;;;;;;;5061381;28;20497;-69
2022/10/29 11:19:01;;;;;;;18.67;9.67;;;;;;;;;;5057513;28;20534;-70
2022/10/29 11:21:33;;;;;;;15.80;8.70;;;;;;;;;;5060939;28;20457;-70
2022/10/29 11:24:05;;;;;;;15.60;7.80;;;;;;;;;;5068328;28;20526;-71
2022/10/29 11:26:39;;;;;;;17.30;8.53;;;;;;;;;;5061943;28;20648;-71
2022/10/29 11:29:15;;;;;;;12.73;7.10;;;;;;;;;;5055755;28;20481;-71
2022/10/29 11:31:50;;;;;;;13.10;8.50;;;;;;;;;;5067294;28;20467;-70
2022/10/29 11:34:24;;;;;;;18.20;7.30;;;;;;;;;;5067231;28;20529;-70
2022/10/29 11:37:04;;;;;;;14.33;7.47;;;;;;;;;;5065819;28;20465;-71
2022/10/29 11:39:36;;;;;;;21.10;9.40;;;;;;;;;;5061631;28;20571;-70
2022/10/29 11:42:05;;;;;;;15.73;6.60;;;;;;;;;;5061130;28;20561;-70
2022/10/29 11:44:52;;;;;;;14.97;7.90;;;;;;;;;;5056270;28;20468;-71
2022/10/29 11:47:28;;;;;;;19.77;8.20;;;;;;;;;;5064672;28;20515;-69
2022/10/29 11:50:11;;;;;;;13.00;6.50;;;;;;;;;;5069158;28;20468;-69
2022/10/29 11:52:44;;;;;;;11.70;5.50;;;;;;;;;;5068858;28;20962;-70
2022/10/29 11:55:34;;;;;;;17.03;6.63;;;;;;;;;;5064736;28;20465;-69
2022/10/29 11:58:18;;;;;;;16.23;6.90;;;;;;;;;;5062089;28;21130;-69
2022/10/29 12:00:56;;;;;;;13.80;8.23;;;;;;;;;;5065611;28;20456;-69
2022/10/29 12:03:38;;;;;;;17.47;6.87;;;;;;;;;;5065814;28;20456;-69
2022/10/29 12:06:14;;;;;;;12.20;5.40;;;;;;;;;;5061761;28;20499;-69
2022/10/29 12:09:15;;;;;;;10.43;5.00;;;;;;;;;;5060928;28;20548;-69
2022/10/29 12:11:58;;;;;;;14.73;5.10;;;;;;;;;;5060294;28;20518;-68
2022/10/29 12:14:34;;;;;;;9.93;5.67;;;;;;;;;;5061794;28;20498;-67
2022/10/29 12:17:07;;;;;;;15.73;5.60;;;;;;;;;;5063312;28;20460;-67
2022/10/29 12:19:42;;;;;;;11.40;5.37;;;;;;;;;;5061348;28;20875;-69
2022/10/29 12:22:25;;;;;;;9.63;5.33;;;;;;;;;;5067250;28;20462;-69
2022/10/29 12:25:00;;;;;;;11.57;6.10;;;;;;;;;;5067379;28;20752;-69
2022/10/29 12:27:32;;;;;;;13.80;7.30;;;;;;;;;;5060062;28;20471;-69
2022/10/29 12:30:03;;;;;;;15.53;5.60;;;;;;;;;;5065296;28;20456;-70
2022/10/29 12:32:32;;;;;;;11.40;5.10;;;;;;;;;;5064199;28;20492;-68
2022/10/29 12:35:01;;;;;;;12.53;5.90;;;;;;;;;;5065779;28;20527;-69
2022/10/29 12:37:37;;;;;;;13.57;6.23;;;;;;;;;;5069609;28;20610;-69
2022/10/29 12:40:15;;;;;;;11.90;5.00;;;;;;;;;;5066312;28;21038;-69
2022/10/29 12:42:47;;;;;;;13.13;6.13;;;;;;;;;;5070304;28;20476;-69
2022/10/29 12:45:28;;;;;;;7.90;5.23;;;;;;;;;;5056091;28;20463;-70
2022/10/29 12:47:59;;;;;;;17.77;7.10;;;;;;;;;;5063415;28;20556;-70
2022/10/29 12:50:34;;;;;;;10.60;5.80;;;;;;;;;;5061843;28;20468;-70
2022/10/29 12:53:05;;;;;;;15.43;5.90;;;;;;;;;;5064074;28;20900;-70
2022/10/29 12:55:33;;;;;;;17.90;8.67;;;;;;;;;;5065656;28;20559;-70
2022/10/29 12:58:21;;;;;;;9.07;5.57;;;;;;;;;;5066492;28;20607;-70
2022/10/29 13:00:54;;;;;;;12.07;5.50;;;;;;;;;;5055200;28;20460;-70
2022/10/29 13:03:48;;;;;;;10.13;5.30;;;;;;;;;;5069240;28;20456;-70
2022/10/29 13:06:34;;;;;;;40.27;22.90;;;;;;;;;;5033227;28;20468;-70
2022/10/29 13:11:57;;;;;;;21.73;6.83;;;;;;;;;;5059478;28;20552;-70
2022/10/29 13:14:38;;;;;;;14.53;7.40;;;;;;;;;;5058619;28;20449;-70
2022/10/29 13:17:18;;;;;;;17.33;6.67;;;;;;;;;;5059443;28;20547;-71
2022/10/29 13:19:48;;;;;;;19.93;7.10;;;;;;;;;;5066917;28;20457;-70
2022/10/29 13:22:33;;;;;;;11.40;5.47;;;;;;;;;;5054319;28;20480;-68
2022/10/29 13:25:19;;;;;;;13.90;5.93;;;;;;;;;;5066242;28;20504;-69
2022/10/29 13:27:47;;;;;;;9.93;5.93;;;;;;;;;;5058473;28;20561;-69
2022/10/29 13:30:18;;;;;;;16.50;6.93;;;;;;;;;;5059355;28;20548;-69
2022/10/29 13:32:51;;;;;;;21.97;11.70;;;;;;;;;;5058327;28;20444;-69
2022/10/29 13:35:33;;;;;;;13.20;5.33;;;;;;;;;;5053977;28;20469;-69
2022/10/29 13:38:14;;;;;;;17.10;8.63;;;;;;;;;;5054938;28;21043;-69
2022/10/29 13:40:44;;;;;;;19.83;6.07;;;;;;;;;;5063176;28;20523;-68
2022/10/29 13:43:13;;;;;;;14.07;6.37;;;;;;;;;;5063642;28;20460;-68
2022/10/29 13:45:43;;;;;;;12.80;7.03;;;;;;;;;;5063504;28;20463;-69
2022/10/29 13:48:15;;;;;;;20.07;7.60;;;;;;;;;;5060824;28;20935;-69
2022/10/29 13:50:42;;;;;;;17.03;6.53;;;;;;;;;;5071003;28;20507;-69
2022/10/29 13:53:12;;;;;;;14.33;6.60;;;;;;;;;;5060337;28;20451;-71
2022/10/29 13:55:43;;;;;;;8.63;5.87;;;;;;;;;;5066234;28;20468;-69
2022/10/29 13:58:14;;;;;;;13.57;6.90;;;;;;;;;;5068949;28;20592;-70
2022/10/29 14:00:43;;;;;;;14.07;6.43;;;;;;;;;;5067254;28;20452;-70
2022/10/29 14:03:12;;;;;;;17.80;7.60;;;;;;;;;;5069100;28;20472;-70
2022/10/29 14:05:43;;;;;;;24.53;15.30;;;;;;;;;;5074052;28;20541;-72
2022/10/29 14:08:12;;;;;;;9.77;6.40;;;;;;;;;;5064015;28;20449;-70
2022/10/29 14:10:47;;;;;;;13.67;6.43;;;;;;;;;;5055991;28;20541;-70
2022/10/29 14:13:27;;;;;;;16.90;7.80;;;;;;;;;;5061889;28;20559;-69
2022/10/29 14:16:11;;;;;;;14.90;6.07;;;;;;;;;;5068084;28;20464;-70
2022/10/29 14:18:39;;;;;;;15.90;6.37;;;;;;;;;;5068712;28;20484;-69
2022/10/29 14:21:16;;;;;;;11.70;5.60;;;;;;;;;;5072130;28;20467;-68
2022/10/29 14:23:55;;;;;;;14.90;5.83;;;;;;;;;;5069567;28;20463;-68
2022/10/29 14:26:24;;;;;;;7.93;5.60;;;;;;;;;;5066832;28;20473;-69
2022/10/29 14:28:51;;;;;;;13.83;6.50;;;;;;;;;;5062434;28;20472;-69
2022/10/29 14:31:21;;;;;;;12.17;5.80;;;;;;;;;;5070529;28;21097;-69
2022/10/29 14:33:53;;;;;;;14.03;6.73;;;;;;;;;;5067286;28;20487;-69
2022/10/29 14:36:22;;;;;;;12.03;6.13;;;;;;;;;;5070123;28;21019;-69
2022/10/29 14:39:06;;;;;;;11.80;6.40;;;;;;;;;;5072776;28;20496;-70
2022/10/29 14:41:38;;;;;;;12.30;6.50;;;;;;;;;;5072102;28;20568;-69
2022/10/29 14:44:14;;;;;;;12.17;7.47;;;;;;;;;;5059301;28;20478;-69
2022/10/29 14:46:50;;;;;;;12.97;6.33;;;;;;;;;;5062527;28;20584;-69
2022/10/29 14:49:19;;;;;;;8.73;5.50;;;;;;;;;;5065496;28;20507;-69
2022/10/29 14:51:50;;;;;;;8.40;6.40;;;;;;;;;;5061404;28;20899;-70
2022/10/29 14:54:20;;;;;;;12.80;6.00;;;;;;;;;;5067287;28;20505;-69